Time;durP1;ratioP1;P1;durP2;ratioP2;P2;SDS_P1;SDS_P2;PMS_P1;PMS_P2;Temp;Humidity;BMP_temperature;BMP_pressure;BME280_temperature;BME280_humidity;BME280_pressure;Samples;Min_cycle;Max_cycle;Signal;HPM_P1;HPM_P2
2023/05/09 00:01:34;;;;;;;23.18;16.60;;;29.00;91.70;;;;;;1919928;73;21181;-91
2023/05/09 00:04:25;;;;;;;23.67;17.05;;;29.00;91.80;;;;;;1901372;73;21103;-91
2023/05/09 00:07:09;;;;;;;22.60;17.45;;;29.00;91.80;;;;;;1915318;73;21102;-90
2023/05/09 00:09:40;;;;;;;24.50;16.75;;;29.00;91.70;;;;;;1952992;73;21654;-89
2023/05/09 00:12:16;;;;;;;21.77;16.85;;;29.00;91.60;;;;;;1941260;73;21156;-89
2023/05/09 00:14:50;;;;;;;23.60;16.32;;;29.10;91.50;;;;;;1941241;73;21117;-91
2023/05/09 00:17:21;;;;;;;23.52;17.67;;;29.10;91.40;;;;;;1948652;73;21103;-90
2023/05/09 00:19:57;;;;;;;23.40;17.50;;;29.10;91.40;;;;;;1944895;73;21162;-90
2023/05/09 00:22:24;;;;;;;23.42;17.42;;;29.20;91.40;;;;;;1909449;74;21134;-90
2023/05/09 00:24:57;;;;;;;21.15;16.35;;;29.20;91.40;;;;;;1899712;73;21181;-90
2023/05/09 00:27:29;;;;;;;21.10;16.02;;;29.20;91.30;;;;;;1939034;72;21454;-90
2023/05/09 00:29:59;;;;;;;30.82;17.98;;;29.20;91.30;;;;;;1923439;73;21131;-90
2023/05/09 00:32:35;;;;;;;27.17;18.35;;;29.20;91.30;;;;;;1951653;73;21151;-90
2023/05/09 00:35:08;;;;;;;25.32;18.17;;;29.30;91.30;;;;;;1920002;73;21116;-90
2023/05/09 00:37:40;;;;;;;22.45;16.52;;;29.30;91.30;;;;;;1941518;72;21193;-89
2023/05/09 00:40:29;;;;;;;24.95;17.55;;;29.30;91.40;;;;;;1908621;73;21156;-90
2023/05/09 00:43:18;;;;;;;25.15;17.77;;;29.40;91.40;;;;;;1903535;73;21171;-90
2023/05/09 00:45:49;;;;;;;22.30;16.70;;;29.40;91.20;;;;;;1906839;73;21068;-91
2023/05/09 00:48:21;;;;;;;21.85;16.67;;;29.50;91.20;;;;;;1901181;73;21119;-89
2023/05/09 00:51:06;;;;;;;22.80;17.90;;;29.50;91.10;;;;;;1901576;73;21264;-89
2023/05/09 00:53:47;;;;;;;20.92;17.48;;;29.50;91.00;;;;;;1923179;73;21170;-91
2023/05/09 00:56:18;;;;;;;24.10;17.80;;;29.60;91.00;;;;;;1931452;73;21070;-90
2023/05/09 00:58:52;;;;;;;26.05;16.48;;;29.60;90.90;;;;;;1934807;73;21228;-91
2023/05/09 01:01:23;;;;;;;20.17;16.23;;;29.60;90.60;;;;;;1896950;75;21155;-89
2023/05/09 01:03:54;;;;;;;23.98;14.85;;;29.70;90.40;;;;;;1942077;73;21076;-89
2023/05/09 01:06:55;;;;;;;20.80;14.87;;;29.60;90.20;;;;;;1930160;73;21124;-84
2023/05/09 01:09:45;;;;;;;23.05;16.17;;;29.70;90.40;;;;;;1876321;75;21174;-73
2023/05/09 01:12:40;;;;;;;23.67;15.83;;;29.80;90.30;;;;;;1895548;75;21115;-78
2023/05/09 01:15:13;;;;;;;75.52;18.87;;;29.90;90.20;;;;;;1924997;73;21143;-77
2023/05/09 01:17:59;;;;;;;115.65;22.80;;;30.00;89.30;;;;;;1943973;73;21161;-76
2023/05/09 01:20:45;;;;;;;17.87;13.33;;;30.10;89.10;;;;;;1919332;73;21147;-73
2023/05/09 01:23:24;;;;;;;19.20;14.03;;;30.20;88.40;;;;;;1911460;75;21563;-73
2023/05/09 01:25:58;;;;;;;22.58;14.35;;;30.20;88.30;;;;;;1930860;73;21131;-75
2023/05/09 01:28:34;;;;;;;24.90;13.62;;;30.30;88.20;;;;;;1927641;73;21132;-74
2023/05/09 01:31:08;;;;;;;17.82;13.62;;;30.40;88.50;;;;;;1899272;74;21611;-79
2023/05/09 01:33:41;;;;;;;19.80;14.25;;;30.50;87.60;;;;;;1892794;75;21171;-77
2023/05/09 01:36:15;;;;;;;20.80;13.95;;;30.50;87.50;;;;;;1915898;73;21163;-78
2023/05/09 01:38:48;;;;;;;16.40;12.58;;;30.60;87.50;;;;;;1906583;74;21578;-74
2023/05/09 01:41:21;;;;;;;14.58;10.68;;;30.70;86.20;;;;;;1928932;73;21672;-75
2023/05/09 01:43:54;;;;;;;16.57;10.93;;;30.80;84.30;;;;;;1929722;73;21123;-74
2023/05/09 01:46:27;;;;;;;15.78;10.72;;;30.90;83.90;;;;;;1884634;74;21233;-77
2023/05/09 01:49:00;;;;;;;14.23;10.75;;;31.00;83.40;;;;;;1916500;73;21177;-76
2023/05/09 01:51:36;;;;;;;13.25;10.28;;;31.10;82.90;;;;;;1939024;73;21142;-77
2023/05/09 01:54:07;;;;;;;17.05;10.63;;;31.20;82.60;;;;;;1901275;74;21192;-75
2023/05/09 01:56:39;;;;;;;14.23;10.48;;;31.20;82.20;;;;;;1933636;73;21143;-81
2023/05/09 01:59:14;;;;;;;14.00;10.38;;;31.30;82.20;;;;;;1923838;73;21052;-73
2023/05/09 02:01:45;;;;;;;15.13;10.88;;;31.40;81.40;;;;;;1927603;73;21087;-79
2023/05/09 02:04:17;;;;;;;14.90;10.00;;;31.40;81.30;;;;;;1925286;73;21100;-77
2023/05/09 02:06:50;;;;;;;14.38;10.68;;;31.50;80.20;;;;;;1931456;73;21162;-78
2023/05/09 02:09:21;;;;;;;14.43;10.72;;;31.60;81.00;;;;;;1909898;73;21217;-76
2023/05/09 02:11:55;;;;;;;16.32;10.55;;;31.60;81.00;;;;;;1933810;73;21148;-78
2023/05/09 02:14:27;;;;;;;15.43;11.08;;;31.70;81.30;;;;;;1893310;75;21183;-82
2023/05/09 02:17:08;;;;;;;17.15;10.72;;;31.80;81.20;;;;;;1925567;73;21077;-78
2023/05/09 02:19:51;;;;;;;14.53;11.05;;;31.90;80.60;;;;;;1792225;79;21114;-78
2023/05/09 02:22:27;;;;;;;16.30;11.38;;;32.10;80.60;;;;;;1760039;80;21204;-79
2023/05/09 02:24:54;;;;;;;22.22;11.95;;;32.10;80.30;;;;;;1787741;79;21162;-73
2023/05/09 02:27:29;;;;;;;14.20;10.75;;;32.20;80.40;;;;;;1788305;78;21743;-76
2023/05/09 02:30:02;;;;;;;16.37;11.18;;;32.20;80.50;;;;;;1778902;78;21191;-80
2023/05/09 02:32:38;;;;;;;14.63;11.03;;;32.30;80.00;;;;;;1785705;79;21242;-79
2023/05/09 02:35:10;;;;;;;18.23;10.70;;;32.30;79.80;;;;;;1784184;78;21223;-76
2023/05/09 02:37:42;;;;;;;15.18;11.55;;;32.40;79.80;;;;;;1764604;80;21260;-81
2023/05/09 02:40:19;;;;;;;19.45;12.15;;;32.50;79.50;;;;;;1802056;78;21272;-77
2023/05/09 02:43:09;;;;;;;17.42;11.10;;;32.60;79.70;;;;;;1768956;81;21214;-77
2023/05/09 02:45:40;;;;;;;17.10;11.53;;;32.60;79.30;;;;;;1769242;81;21202;-78
2023/05/09 02:48:18;;;;;;;18.40;11.48;;;32.70;79.10;;;;;;1768567;79;21251;-78
2023/05/09 02:50:49;;;;;;;15.28;11.97;;;32.80;78.70;;;;;;1770337;80;21716;-79
2023/05/09 02:53:20;;;;;;;17.55;11.88;;;32.80;78.70;;;;;;1800094;78;21268;-74
2023/05/09 02:55:54;;;;;;;15.75;12.60;;;32.90;78.50;;;;;;1797840;78;21149;-79
2023/05/09 02:58:25;;;;;;;17.37;11.90;;;33.00;78.90;;;;;;1920796;73;21667;-84
2023/05/09 03:00:57;;;;;;;14.65;11.73;;;33.00;77.90;;;;;;1929016;73;21192;-83
2023/05/09 03:03:27;;;;;;;18.02;12.50;;;33.10;77.90;;;;;;1928866;74;21195;-78
2023/05/09 03:05:58;;;;;;;14.70;11.80;;;33.10;78.00;;;;;;1925650;73;21105;-79
2023/05/09 03:08:47;;;;;;;14.47;12.18;;;33.20;77.90;;;;;;1890806;74;21091;-77
2023/05/09 03:11:30;;;;;;;16.15;13.62;;;33.20;77.90;;;;;;1862070;75;21146;-79
2023/05/09 03:14:03;;;;;;;15.43;11.40;;;33.30;77.90;;;;;;1914526;73;21099;-79
2023/05/09 03:16:54;;;;;;;16.23;12.53;;;33.30;78.00;;;;;;1896140;74;21188;-74
2023/05/09 03:19:25;;;;;;;16.15;12.53;;;33.50;78.30;;;;;;1898634;74;21573;-80
2023/05/09 03:21:57;;;;;;;18.10;13.03;;;33.50;77.90;;;;;;1876453;75;21186;-79
2023/05/09 03:24:28;;;;;;;18.85;13.00;;;33.60;78.00;;;;;;1882077;75;21123;-81
2023/05/09 03:26:59;;;;;;;17.37;12.25;;;33.60;78.00;;;;;;1884073;75;21072;-83
2023/05/09 03:29:30;;;;;;;17.98;12.95;;;33.80;78.70;;;;;;1889067;74;21541;-81
2023/05/09 03:32:00;;;;;;;19.80;13.13;;;33.80;76.40;;;;;;1893485;75;21196;-79
2023/05/09 03:34:31;;;;;;;16.42;13.83;;;33.90;76.80;;;;;;1893326;74;21170;-82
2023/05/09 03:37:02;;;;;;;21.20;12.73;;;;;;;;;;1921947;73;21592;-79
2023/05/09 03:39:33;;;;;;;18.27;12.45;;;34.00;75.80;;;;;;1940810;72;21147;-79
2023/05/09 03:42:04;;;;;;;19.65;12.53;;;34.00;74.10;;;;;;1941170;73;21201;-78
2023/05/09 03:44:56;;;;;;;17.05;11.85;;;34.00;74.40;;;;;;1938170;72;21142;-77
2023/05/09 03:47:27;;;;;;;19.82;12.58;;;34.10;73.30;;;;;;1931113;73;21216;-81
2023/05/09 03:49:58;;;;;;;15.38;11.35;;;34.20;73.30;;;;;;1936549;73;21112;-78
2023/05/09 03:52:29;;;;;;;14.23;11.05;;;34.30;74.40;;;;;;1938907;73;21134;-78
2023/05/09 03:55:00;;;;;;;13.68;11.35;;;34.30;72.70;;;;;;1904013;75;21535;-79
2023/05/09 03:57:30;;;;;;;15.18;11.03;;;34.40;72.20;;;;;;1933867;73;21068;-83
2023/05/09 04:00:02;;;;;;;14.95;11.83;;;34.40;72.90;;;;;;1913626;73;21159;-82
2023/05/09 04:02:34;;;;;;;15.98;11.45;;;34.50;71.20;;;;;;1902911;74;21626;-81
2023/05/09 04:05:08;;;;;;;16.82;11.25;;;34.60;71.20;;;;;;1918988;74;21071;-83
2023/05/09 04:07:39;;;;;;;26.05;11.80;;;34.70;71.40;;;;;;1901205;75;21648;-81
2023/05/09 04:10:11;;;;;;;17.05;11.35;;;34.70;70.50;;;;;;1927514;73;21182;-79
2023/05/09 04:12:42;;;;;;;14.07;11.30;;;34.70;71.50;;;;;;1935689;74;21238;-78
2023/05/09 04:15:13;;;;;;;15.65;12.03;;;34.70;72.00;;;;;;1894760;74;21154;-79
2023/05/09 04:17:44;;;;;;;14.90;11.38;;;34.70;71.70;;;;;;1915007;74;21752;-77
2023/05/09 04:20:16;;;;;;;16.37;10.95;;;34.80;70.60;;;;;;1907772;74;21806;-81
2023/05/09 04:22:47;;;;;;;16.25;10.93;;;34.90;69.90;;;;;;1917316;74;21556;-78
2023/05/09 04:25:19;;;;;;;13.60;10.78;;;35.00;69.30;;;;;;1910865;74;21548;-79
2023/05/09 04:27:51;;;;;;;17.45;11.43;;;35.00;68.80;;;;;;1902055;74;21229;-81
2023/05/09 04:30:33;;;;;;;15.38;11.35;;;35.00;68.60;;;;;;1903721;74;21638;-79
2023/05/09 04:33:03;;;;;;;14.40;11.35;;;35.10;68.80;;;;;;1893158;74;21122;-84
2023/05/09 04:35:36;;;;;;;16.55;11.05;;;35.10;69.50;;;;;;1905624;74;21619;-79
2023/05/09 04:38:25;;;;;;;12.33;10.88;;;35.10;68.60;;;;;;1855771;76;21120;-83
2023/05/09 04:40:57;;;;;;;13.62;10.95;;;35.10;68.70;;;;;;1912102;74;21221;-81
2023/05/09 04:43:31;;;;;;;17.07;11.22;;;35.10;68.20;;;;;;1900828;75;21161;-76
2023/05/09 04:46:02;;;;;;;13.85;10.85;;;35.20;67.70;;;;;;1905214;75;21079;-79
2023/05/09 04:48:33;;;;;;;14.25;11.00;;;35.30;66.60;;;;;;1912609;74;21151;-82
2023/05/09 04:51:04;;;;;;;14.10;11.73;;;35.40;66.00;;;;;;1858909;77;21188;-80
2023/05/09 04:53:35;;;;;;;16.00;11.97;;;35.40;65.50;;;;;;1877882;75;21182;-78
2023/05/09 04:56:06;;;;;;;13.05;11.12;;;35.40;65.50;;;;;;1922362;74;21537;-81
2023/05/09 04:58:40;;;;;;;14.15;11.85;;;35.50;65.90;;;;;;1880898;75;21252;-81
2023/05/09 05:01:11;;;;;;;16.35;11.95;;;35.50;64.30;;;;;;1914718;74;21523;-80
2023/05/09 05:03:47;;;;;;;14.77;11.80;;;35.60;63.80;;;;;;1907672;74;21118;-80
2023/05/09 05:06:18;;;;;;;14.55;12.05;;;35.60;63.90;;;;;;1918033;74;21051;-83
2023/05/09 05:08:49;;;;;;;16.05;13.95;;;35.50;63.70;;;;;;1884183;75;21133;-82
2023/05/09 05:11:20;;;;;;;14.23;12.30;;;35.60;64.60;;;;;;1902589;74;21220;-83
2023/05/09 05:13:51;;;;;;;15.13;12.55;;;35.50;64.20;;;;;;1891121;75;21107;-79
2023/05/09 05:16:22;;;;;;;15.93;12.98;;;35.50;63.80;;;;;;1891435;75;21697;-79
2023/05/09 05:18:53;;;;;;;19.73;12.95;;;35.50;65.50;;;;;;1895524;75;21224;-83
2023/05/09 05:21:24;;;;;;;17.57;13.45;;;35.60;65.30;;;;;;1883700;74;21484;-82
2023/05/09 05:23:55;;;;;;;14.43;12.68;;;35.60;65.90;;;;;;1905542;74;21196;-81
2023/05/09 05:26:26;;;;;;;19.75;16.57;;;35.70;66.00;;;;;;1893723;74;21739;-82
2023/05/09 05:28:58;;;;;;;22.87;14.43;;;35.70;65.50;;;;;;1890108;75;21504;-79
2023/05/09 05:31:29;;;;;;;15.20;13.03;;;35.70;65.90;;;;;;1883686;74;21174;-78
2023/05/09 05:34:00;;;;;;;14.80;11.85;;;35.70;65.50;;;;;;1883718;75;21061;-79
2023/05/09 05:36:31;;;;;;;16.97;12.25;;;35.70;65.80;;;;;;1887671;74;21667;-80
2023/05/09 05:39:03;;;;;;;18.00;12.73;;;35.70;65.50;;;;;;1916610;74;21704;-80
2023/05/09 05:41:34;;;;;;;18.32;13.22;;;35.70;65.80;;;;;;1916986;74;21467;-77
2023/05/09 05:44:05;;;;;;;20.50;13.08;;;35.70;65.90;;;;;;1906932;74;21601;-78
2023/05/09 05:46:36;;;;;;;14.87;13.38;;;35.70;65.40;;;;;;1936587;73;21175;-77
2023/05/09 05:49:06;;;;;;;17.05;13.25;;;35.70;65.40;;;;;;1915715;74;21147;-76
2023/05/09 05:51:37;;;;;;;15.28;12.10;;;35.70;66.00;;;;;;1912150;74;21124;-78
2023/05/09 05:54:08;;;;;;;14.73;11.75;;;35.70;66.20;;;;;;1904007;75;21929;-76
2023/05/09 05:56:39;;;;;;;18.52;13.03;;;35.70;66.00;;;;;;1905543;74;21087;-81
2023/05/09 05:59:10;;;;;;;16.15;12.45;;;35.60;66.50;;;;;;1936468;73;21576;-81
2023/05/09 06:01:42;;;;;;;15.98;12.73;;;35.40;66.60;;;;;;1936037;73;21064;-77
2023/05/09 06:04:13;;;;;;;18.62;12.85;;;35.30;67.00;;;;;;1931248;73;21112;-78
2023/05/09 06:06:45;;;;;;;15.23;13.60;;;35.30;66.90;;;;;;1921880;73;21185;-73
2023/05/09 06:09:16;;;;;;;15.72;12.70;;;35.20;67.20;;;;;;1905910;74;21123;-80
2023/05/09 06:11:46;;;;;;;17.17;13.08;;;35.10;67.20;;;;;;1925878;74;21068;-78
2023/05/09 06:14:17;;;;;;;14.58;12.50;;;35.10;67.50;;;;;;1919340;73;21451;-76
2023/05/09 06:16:50;;;;;;;17.87;13.08;;;35.10;68.00;;;;;;1926565;73;21253;-76
2023/05/09 06:19:23;;;;;;;14.98;12.78;;;35.10;67.90;;;;;;1914696;73;21182;-80
2023/05/09 06:21:54;;;;;;;17.98;13.55;;;35.20;67.20;;;;;;1928867;73;21174;-79
2023/05/09 06:24:25;;;;;;;18.02;12.98;;;35.30;67.40;;;;;;1944211;73;21142;-80
2023/05/09 06:26:58;;;;;;;14.78;13.28;;;35.40;67.40;;;;;;1898209;75;21680;-80
2023/05/09 06:29:29;;;;;;;15.70;12.68;;;35.50;66.90;;;;;;1901687;75;21107;-82
2023/05/09 06:31:59;;;;;;;15.93;12.00;;;35.50;66.30;;;;;;1934295;73;21103;-79
2023/05/09 06:34:32;;;;;;;18.05;12.90;;;35.60;66.10;;;;;;1905691;75;21479;-82
2023/05/09 06:37:03;;;;;;;14.55;12.50;;;35.60;66.40;;;;;;1922807;74;21195;-78
2023/05/09 06:39:34;;;;;;;17.57;12.73;;;35.60;66.60;;;;;;1913966;74;21155;-78
2023/05/09 06:42:08;;;;;;;21.68;11.93;;;35.70;66.10;;;;;;1901092;74;21637;-80
2023/05/09 06:44:42;;;;;;;18.02;12.20;;;35.70;65.60;;;;;;1895480;74;21233;-79
2023/05/09 06:47:14;;;;;;;14.65;11.68;;;35.70;65.50;;;;;;1917286;73;21660;-81
2023/05/09 06:49:49;;;;;;;14.83;12.25;;;35.70;65.70;;;;;;1920261;74;21119;-78
2023/05/09 06:52:21;;;;;;;15.28;12.45;;;35.70;65.40;;;;;;1917804;74;21245;-76
2023/05/09 06:54:53;;;;;;;18.65;12.15;;;35.70;65.30;;;;;;1909800;73;21164;-77
2023/05/09 06:57:23;;;;;;;17.00;12.43;;;35.60;65.40;;;;;;1922144;74;21204;-78
2023/05/09 06:59:55;;;;;;;12.50;11.18;;;35.60;65.90;;;;;;1918603;74;21127;-77
2023/05/09 07:02:26;;;;;;;15.93;12.00;;;35.60;65.70;;;;;;1938533;73;21127;-78
2023/05/09 07:04:58;;;;;;;16.97;11.83;;;35.60;65.50;;;;;;1915980;74;21467;-77
2023/05/09 07:07:29;;;;;;;14.28;12.50;;;35.50;66.00;;;;;;1894572;74;21084;-79
2023/05/09 07:10:02;;;;;;;18.00;10.93;;;35.60;65.30;;;;;;1900487;75;21744;-84
2023/05/09 07:12:34;;;;;;;16.50;12.30;;;35.60;65.50;;;;;;1928418;74;21199;-82
2023/05/09 07:15:06;;;;;;;13.80;11.60;;;35.70;64.60;;;;;;1932808;73;21073;-82
2023/05/09 07:17:37;;;;;;;13.88;11.43;;;35.70;64.50;;;;;;1922937;73;21111;-79
2023/05/09 07:20:09;;;;;;;13.80;11.73;;;35.70;65.10;;;;;;1926407;73;21152;-85
2023/05/09 07:22:40;;;;;;;14.65;11.83;;;35.70;64.10;;;;;;1921639;74;21072;-78
2023/05/09 07:25:14;;;;;;;14.45;11.48;;;35.60;63.80;;;;;;1947768;74;21563;-81
2023/05/09 07:27:52;;;;;;;15.30;11.90;;;35.60;64.30;;;;;;1946930;74;21124;-82
2023/05/09 07:30:45;;;;;;;14.60;12.13;;;35.60;64.60;;;;;;1902369;74;21181;-87
2023/05/09 07:33:16;;;;;;;12.75;11.33;;;35.60;63.90;;;;;;1927723;73;21209;-84
2023/05/09 07:35:49;;;;;;;14.10;11.53;;;35.60;63.80;;;;;;1908723;75;21761;-86
2023/05/09 07:41:17;;;;;;;17.80;12.78;;;35.60;64.10;;;;;;1860788;75;21614;-84
2023/05/09 07:43:51;;;;;;;13.40;11.45;;;35.70;64.80;;;;;;1927094;73;21104;-84
2023/05/09 07:46:43;;;;;;;15.72;12.88;;;35.70;64.10;;;;;;1867958;76;21252;-83
2023/05/09 07:49:18;;;;;;;13.15;11.53;;;35.80;63.70;;;;;;1853146;76;21162;-81
2023/05/09 07:51:57;;;;;;;17.50;12.93;;;35.70;63.40;;;;;;1840391;76;21216;-84
2023/05/09 07:54:28;;;;;;;16.48;13.30;;;35.70;63.50;;;;;;1839557;78;21103;-82
2023/05/09 07:57:02;;;;;;;19.25;13.10;;;35.70;63.60;;;;;;1867775;76;21272;-82
2023/05/09 07:59:43;;;;;;;14.93;12.13;;;35.70;63.60;;;;;;1833977;77;21097;-86
2023/05/09 08:02:14;;;;;;;15.70;12.82;;;35.60;63.70;;;;;;1835665;76;21164;-80
2023/05/09 08:04:47;;;;;;;14.98;13.00;;;35.60;64.10;;;;;;1872045;76;21170;-77
2023/05/09 08:07:18;;;;;;;17.87;13.25;;;35.50;64.00;;;;;;1860686;77;21159;-80
2023/05/09 08:09:54;;;;;;;21.00;13.08;;;35.60;64.30;;;;;;1857576;76;21070;-76
2023/05/09 08:12:47;;;;;;;18.80;13.03;;;35.60;64.70;;;;;;1876286;76;21543;-79
2023/05/09 08:15:15;;;;;;;15.32;12.53;;;35.60;64.60;;;;;;1868832;76;21072;-78
2023/05/09 08:17:47;;;;;;;14.85;13.05;;;35.50;64.40;;;;;;1904065;74;21123;-78
2023/05/09 08:20:19;;;;;;;14.63;12.33;;;35.60;64.30;;;;;;1932423;74;21321;-82
2023/05/09 08:22:50;;;;;;;16.95;13.70;;;35.60;64.40;;;;;;1921669;74;21639;-82
2023/05/09 08:25:22;;;;;;;14.43;12.25;;;35.60;64.30;;;;;;1934125;73;21929;-79
2023/05/09 08:27:53;;;;;;;20.52;13.32;;;35.70;63.90;;;;;;1943550;74;21193;-80
2023/05/09 08:30:25;;;;;;;15.18;12.65;;;35.70;64.10;;;;;;1938326;73;21285;-80
2023/05/09 08:32:56;;;;;;;17.57;14.28;;;35.70;64.40;;;;;;1932457;73;21095;-82
2023/05/09 08:35:27;;;;;;;25.62;14.90;;;35.70;64.30;;;;;;1929243;73;21584;-80
2023/05/09 08:37:58;;;;;;;17.85;13.80;;;35.70;64.20;;;;;;1926547;73;21934;-82
2023/05/09 08:40:41;;;;;;;16.80;12.82;;;35.70;64.30;;;;;;1894646;75;21116;-81
2023/05/09 08:43:12;;;;;;;23.40;13.70;;;35.70;63.80;;;;;;1900090;75;21176;-83
2023/05/09 08:45:46;;;;;;;17.42;13.62;;;35.60;64.10;;;;;;1909675;74;21110;-79
2023/05/09 08:48:26;;;;;;;22.45;16.15;;;35.60;64.60;;;;;;1918203;73;21181;-81
2023/05/09 08:51:01;;;;;;;20.60;14.45;;;35.60;64.90;;;;;;1914406;73;21193;-83
2023/05/09 08:53:32;;;;;;;20.60;14.25;;;35.60;68.20;;;;;;1921020;75;21032;-81
2023/05/09 08:56:04;;;;;;;25.57;14.50;;;35.40;68.40;;;;;;1940038;73;21132;-81
2023/05/09 08:58:35;;;;;;;19.82;14.60;;;35.30;69.10;;;;;;1937522;73;21579;-75
2023/05/09 09:01:11;;;;;;;16.07;14.15;;;35.00;69.50;;;;;;1940904;73;21185;-79
2023/05/09 09:03:48;;;;;;;21.05;13.28;;;34.80;69.80;;;;;;1903748;74;21166;-77
2023/05/09 09:06:25;;;;;;;19.87;14.53;;;34.70;70.30;;;;;;1902393;74;21559;-75
2023/05/09 09:08:58;;;;;;;16.55;13.65;;;34.60;71.00;;;;;;1937897;73;21201;-82
2023/05/09 09:11:30;;;;;;;16.82;12.90;;;34.40;70.80;;;;;;1936005;73;21190;-82
2023/05/09 09:14:03;;;;;;;18.20;13.18;;;34.30;71.50;;;;;;1924466;73;21594;-80
2023/05/09 09:16:36;;;;;;;15.72;12.47;;;34.20;72.00;;;;;;1913411;74;21122;-80
2023/05/09 09:19:10;;;;;;;23.70;13.78;;;34.10;71.90;;;;;;1937305;73;21217;-79
2023/05/09 09:21:49;;;;;;;17.48;12.88;;;34.10;71.80;;;;;;1915813;73;21092;-84
2023/05/09 09:24:22;;;;;;;16.30;12.82;;;34.00;71.80;;;;;;1921669;73;21907;-80
2023/05/09 09:26:55;;;;;;;20.68;13.50;;;33.90;71.40;;;;;;1930137;73;21504;-80
2023/05/09 09:29:28;;;;;;;13.60;12.20;;;34.00;71.40;;;;;;1910514;74;21208;-82
2023/05/09 09:32:01;;;;;;;23.20;15.20;;;33.90;71.30;;;;;;1908559;75;21168;-80
2023/05/09 09:34:33;;;;;;;19.37;14.73;;;33.90;71.30;;;;;;1919235;74;21245;-77
2023/05/09 09:37:05;;;;;;;17.17;13.88;;;33.90;71.00;;;;;;1918887;74;21111;-79
2023/05/09 09:39:37;;;;;;;18.90;14.13;;;33.90;71.20;;;;;;1920176;74;21142;-78
2023/05/09 09:42:14;;;;;;;14.40;12.85;;;33.80;72.10;;;;;;1910658;74;21180;-75
2023/05/09 09:44:45;;;;;;;17.17;13.88;;;33.80;72.70;;;;;;1926375;74;21134;-78
2023/05/09 09:47:16;;;;;;;18.17;12.82;;;33.80;73.00;;;;;;1930022;73;21235;-77
2023/05/09 09:49:47;;;;;;;16.23;13.60;;;33.80;73.80;;;;;;1920671;74;21149;-79
2023/05/09 09:52:25;;;;;;;14.40;12.23;;;33.80;73.90;;;;;;1908520;74;21640;-78
2023/05/09 09:54:56;;;;;;;13.55;11.93;;;33.80;73.20;;;;;;1920149;74;21147;-77
2023/05/09 09:57:40;;;;;;;16.62;12.05;;;33.70;72.40;;;;;;1932054;74;21151;-80
2023/05/09 10:00:11;;;;;;;18.00;13.58;;;33.60;72.80;;;;;;1921686;74;21220;-79
2023/05/09 10:02:54;;;;;;;17.80;12.85;;;33.60;73.10;;;;;;1948207;73;21087;-73
2023/05/09 10:05:27;;;;;;;31.23;14.75;;;33.70;73.80;;;;;;1924094;73;21108;-77
2023/05/09 10:08:00;;;;;;;26.48;22.05;;;33.70;74.60;;;;;;1938968;74;21122;-77
2023/05/09 10:10:35;;;;;;;21.00;15.08;;;33.70;75.10;;;;;;1932616;74;21212;-78
2023/05/09 10:13:08;;;;;;;19.32;13.50;;;33.60;74.90;;;;;;1911120;75;21162;-79
2023/05/09 10:15:41;;;;;;;16.17;13.00;;;33.60;75.50;;;;;;1930009;74;21215;-82
2023/05/09 10:18:21;;;;;;;16.27;13.43;;;33.60;75.50;;;;;;1914705;74;21245;-75
2023/05/09 10:20:48;;;;;;;18.50;14.28;;;33.60;76.00;;;;;;1889282;75;21670;-78
2023/05/09 10:23:20;;;;;;;15.50;13.35;;;33.60;75.10;;;;;;1919893;74;21248;-78
2023/05/09 10:26:00;;;;;;;18.27;13.25;;;33.60;74.90;;;;;;1925428;74;21130;-79
2023/05/09 10:28:34;;;;;;;15.70;13.08;;;33.60;74.60;;;;;;1910378;74;21160;-78
2023/05/09 10:31:13;;;;;;;15.68;13.30;;;33.70;74.50;;;;;;1931125;74;21542;-77
2023/05/09 10:33:51;;;;;;;16.02;13.15;;;33.60;74.40;;;;;;1909008;74;21109;-77
2023/05/09 10:36:23;;;;;;;19.98;13.85;;;33.60;74.20;;;;;;1925402;74;21107;-80
2023/05/09 10:38:55;;;;;;;19.02;13.62;;;33.60;74.10;;;;;;1934991;74;21753;-80
2023/05/09 10:41:27;;;;;;;19.65;12.75;;;33.60;74.10;;;;;;1910978;74;21615;-77
2023/05/09 10:43:59;;;;;;;26.50;14.07;;;33.60;74.00;;;;;;1920377;74;21123;-73
2023/05/09 10:46:31;;;;;;;16.10;13.08;;;33.70;74.00;;;;;;1923725;74;21166;-87
2023/05/09 10:49:02;;;;;;;23.30;14.15;;;33.70;73.80;;;;;;1928067;74;21763;-87
2023/05/09 10:51:34;;;;;;;17.27;14.07;;;33.70;73.70;;;;;;1933279;74;21139;-85
2023/05/09 10:54:15;;;;;;;17.55;13.18;;;33.70;73.60;;;;;;1925694;74;21166;-86
2023/05/09 10:56:46;;;;;;;16.90;12.88;;;33.70;73.50;;;;;;1924460;74;21213;-86
2023/05/09 10:59:37;;;;;;;17.82;13.55;;;33.80;73.50;;;;;;1923448;74;21089;-87
2023/05/09 11:02:16;;;;;;;18.15;13.25;;;33.70;73.40;;;;;;1930335;74;21088;-86
2023/05/09 11:04:49;;;;;;;16.20;13.15;;;33.70;73.40;;;;;;1922219;74;21413;-87
2023/05/09 11:07:29;;;;;;;16.55;13.08;;;33.70;73.50;;;;;;1927484;74;21166;-89
2023/05/09 11:10:18;;;;;;;22.97;13.77;;;33.70;73.60;;;;;;1923553;74;21597;-85
2023/05/09 11:12:57;;;;;;;21.23;13.53;;;33.60;74.10;;;;;;1931056;74;21188;-86
2023/05/09 11:15:50;;;;;;;16.75;12.70;;;33.60;74.20;;;;;;1928471;73;21152;-85
2023/05/09 11:18:08;;;;;;;17.42;13.43;;;33.50;74.60;;;;;;1896874;73;21151;-85
2023/05/09 11:20:45;;;;;;;;;;;33.50;74.60;;;;;;1923082;74;21684;-86
2023/05/09 11:23:24;;;;;;;14.43;12.50;;;33.50;74.30;;;;;;1922263;74;20199;-86
2023/05/09 11:26:00;;;;;;;;;;;33.40;74.90;;;;;;1928895;74;21123;-87
2023/05/09 11:28:32;;;;;;;13.93;12.37;;;33.40;75.00;;;;;;1926569;74;20286;-86
2023/05/09 11:31:17;;;;;;;15.70;12.90;;;33.40;74.60;;;;;;1915572;74;21119;-85
2023/05/09 11:33:57;;;;;;;14.43;12.93;;;33.30;74.40;;;;;;1917872;74;21149;-86
2023/05/09 11:36:32;;;;;;;20.60;13.53;;;33.30;75.30;;;;;;1918877;73;21221;-86
2023/05/09 11:39:07;;;;;;;18.25;14.15;;;33.30;74.30;;;;;;1912529;74;21139;-85
2023/05/09 11:41:42;;;;;;;15.93;14.03;;;33.30;74.10;;;;;;1920515;74;21214;-87
2023/05/09 11:44:15;;;;;;;20.97;15.30;;;33.30;73.90;;;;;;1913077;74;21156;-86
2023/05/09 11:46:47;;;;;;;17.87;13.25;;;33.30;74.10;;;;;;1899239;73;21627;-86
2023/05/09 11:49:19;;;;;;;22.48;14.93;;;33.30;74.10;;;;;;1910463;74;21639;-85
2023/05/09 11:51:52;;;;;;;21.77;14.58;;;33.30;74.10;;;;;;1944270;74;21571;-86
2023/05/09 11:54:25;;;;;;;20.52;13.53;;;33.30;74.40;;;;;;1933187;74;21115;-86
2023/05/09 11:56:59;;;;;;;19.48;14.45;;;33.20;74.90;;;;;;1939451;73;21080;-85
2023/05/09 11:59:30;;;;;;;18.50;13.53;;;33.20;75.50;;;;;;1930497;74;21196;-86
2023/05/09 12:02:03;;;;;;;17.30;13.28;;;33.10;75.80;;;;;;1934102;74;21127;-86
2023/05/09 12:04:35;;;;;;;17.25;14.03;;;33.00;76.60;;;;;;1946024;74;21100;-87
2023/05/09 12:07:06;;;;;;;15.98;13.58;;;32.90;75.70;;;;;;1942405;74;21230;-86
2023/05/09 12:09:37;;;;;;;17.32;13.25;;;32.90;76.80;;;;;;1945639;74;21112;-86
2023/05/09 12:12:16;;;;;;;20.12;14.93;;;32.90;76.80;;;;;;1936099;74;21645;-86
2023/05/09 12:14:48;;;;;;;16.30;14.10;;;32.80;76.80;;;;;;1907637;75;21516;-86
2023/05/09 12:17:21;;;;;;;19.70;14.73;;;32.80;76.50;;;;;;1907866;73;21107;-86
2023/05/09 12:19:54;;;;;;;17.37;12.93;;;32.80;76.40;;;;;;1887122;75;21084;-86
2023/05/09 12:22:25;;;;;;;15.58;13.32;;;32.80;76.80;;;;;;1926569;74;21132;-85
2023/05/09 12:25:01;;;;;;;17.27;13.93;;;32.70;77.00;;;;;;1890462;76;21119;-88
2023/05/09 12:27:32;;;;;;;16.77;14.40;;;32.70;77.40;;;;;;1919081;73;21073;-86
2023/05/09 12:30:07;;;;;;;16.65;13.80;;;32.70;77.90;;;;;;1934968;73;21141;-87
2023/05/09 12:32:42;;;;;;;20.12;12.70;;;32.70;78.00;;;;;;1942142;73;21311;-85
2023/05/09 12:35:10;;;;;;;19.02;14.18;;;32.70;78.00;;;;;;1926777;74;21099;-87
2023/05/09 12:37:47;;;;;;;20.17;13.93;;;32.60;77.60;;;;;;1897563;74;21075;-87
2023/05/09 12:40:20;;;;;;;15.23;13.58;;;32.60;77.60;;;;;;1918867;74;21106;-88
2023/05/09 12:42:58;;;;;;;20.25;16.27;;;32.60;77.60;;;;;;1964784;72;21072;-87
2023/05/09 12:45:26;;;;;;;21.23;12.85;;;32.50;78.40;;;;;;1970691;73;21056;-86
2023/05/09 12:48:00;;;;;;;17.12;11.73;;;32.50;76.60;;;;;;1954937;73;21177;-87
2023/05/09 12:50:38;;;;;;;12.95;9.70;;;32.30;76.70;;;;;;1930833;73;21955;-87
2023/05/09 12:53:32;;;;;;;16.97;11.00;;;32.10;76.50;;;;;;1970440;73;21225;-87
2023/05/09 12:56:08;;;;;;;17.90;10.10;;;32.00;77.20;;;;;;1965851;73;21205;-87
2023/05/09 12:59:00;;;;;;;13.88;9.13;;;31.90;77.40;;;;;;1951117;73;21618;-87
2023/05/09 13:08:25;;;;;;;13.72;9.75;;;31.50;79.70;;;;;;1832359;77;21115;-88
2023/05/09 13:10:56;;;;;;;18.65;12.60;;;31.50;80.50;;;;;;1832544;78;21634;-87
2023/05/09 13:13:30;;;;;;;19.55;11.00;;;31.40;80.80;;;;;;1824323;77;21103;-86